createdAt,value
2022-10-15T00:00:22.113Z,36.47
2022-10-15T00:03:12.389Z,35.60
2022-10-15T00:06:05.564Z,36.93
2022-10-15T00:08:53.701Z,37.10
2022-10-15T00:11:41.832Z,40.33
2022-10-15T00:14:32.883Z,36.17
2022-10-15T00:17:28.531Z,36.67
2022-10-15T00:20:18.956Z,34.90
2022-10-15T00:23:07.051Z,38.20
2022-10-15T00:26:03.042Z,40.63
2022-10-15T02:15:41.559Z,43.50
2022-10-15T02:18:39.154Z,48.23
2022-10-15T02:21:34.110Z,44.53
2022-10-15T02:24:27.365Z,47.73
2022-10-15T06:51:01.372Z,22.87
2022-10-15T06:53:50.577Z,26.93
2022-10-15T06:56:40.104Z,22.20
2022-10-15T06:59:33.991Z,25.80
2022-10-15T07:06:28.393Z,27.50
2022-10-15T07:09:39.572Z,30.43
2022-10-15T07:13:11.807Z,25.60
2022-10-15T07:29:36.781Z,19.97
2022-10-15T07:43:23.522Z,16.93
2022-10-15T08:08:30.377Z,12.13
2022-10-15T08:12:12.541Z,11.77
2022-10-15T08:22:18.907Z,11.47
2022-10-15T08:25:26.310Z,11.70
2022-10-15T08:35:56.587Z,11.50
2022-10-15T08:41:56.515Z,10.53
2022-10-15T09:08:51.409Z,14.80
2022-10-15T09:22:40.264Z,10.90
2022-10-15T09:26:07.039Z,14.17
2022-10-15T09:42:08.115Z,15.73
2022-10-15T09:50:13.037Z,10.43
2022-10-15T10:00:51.381Z,14.43
2022-10-15T10:03:53.476Z,9.80
2022-10-15T10:07:15.133Z,15.90
2022-10-15T10:10:44.553Z,11.73
2022-10-15T10:14:36.166Z,13.77
2022-10-15T10:17:36.388Z,11.87
2022-10-15T10:24:45.541Z,10.10
2022-10-15T10:28:14.926Z,11.90
2022-10-15T10:35:23.190Z,22.93
2022-10-15T10:38:49.522Z,10.63
2022-10-15T10:50:11.767Z,8.37
2022-10-15T11:01:58.763Z,9.30
2022-10-15T11:08:04.412Z,8.60
2022-10-15T11:40:51.318Z,7.97
2022-10-15T11:44:32.750Z,6.30
2022-10-15T11:48:06.363Z,5.47
2022-10-15T12:05:31.165Z,6.10
2022-10-15T12:08:24.866Z,6.20
2022-10-15T12:11:28.648Z,7.27
2022-10-15T12:14:28.811Z,6.07
2022-10-15T12:17:24.627Z,5.20
2022-10-15T12:21:13.967Z,5.00
2022-10-15T12:25:14.195Z,4.70
2022-10-15T12:33:12.533Z,4.53
2022-10-15T12:36:36.339Z,4.50
2022-10-15T12:39:48.061Z,4.23
2022-10-15T12:42:57.808Z,4.90
2022-10-15T12:46:01.204Z,5.50
2022-10-15T12:49:49.576Z,7.30
2022-10-15T12:53:06.366Z,6.10
2022-10-15T13:00:17.399Z,4.30
2022-10-15T13:03:20.543Z,4.50
2022-10-15T13:12:57.937Z,7.23
2022-10-15T13:16:03.237Z,3.97
2022-10-15T13:19:09.344Z,3.73
2022-10-15T13:22:00.648Z,3.93
2022-10-15T13:25:12.049Z,3.73
2022-10-15T13:28:15.346Z,3.33
2022-10-15T13:31:09.732Z,7.00
2022-10-15T13:34:14.963Z,3.03
2022-10-15T13:37:06.657Z,3.27
2022-10-15T13:39:58.479Z,3.53
2022-10-15T13:43:04.363Z,3.97
2022-10-15T13:46:14.943Z,4.70
2022-10-15T13:52:12.204Z,4.03
2022-10-15T13:55:24.518Z,4.33
2022-10-15T13:58:31.551Z,4.17
2022-10-15T14:01:59.698Z,3.23
2022-10-15T14:04:54.004Z,6.63
2022-10-15T14:08:01.543Z,7.80
2022-10-15T14:10:59.009Z,3.70
2022-10-15T14:18:24.284Z,3.67
2022-10-15T14:25:01.758Z,4.33
2022-10-15T14:28:37.053Z,4.50
2022-10-15T14:31:41.640Z,3.30
2022-10-15T14:41:09.513Z,5.53
2022-10-15T14:44:34.943Z,5.20
2022-10-15T14:51:06.584Z,3.77
2022-10-15T14:53:56.773Z,10.80
2022-10-15T14:56:45.160Z,4.77
2022-10-15T14:59:37.832Z,4.20
2022-10-15T15:02:28.702Z,3.47
2022-10-15T15:05:22.120Z,9.90
2022-10-15T15:08:11.696Z,3.23
2022-10-15T15:11:03.011Z,4.23
2022-10-15T15:13:52.417Z,3.33
2022-10-15T15:16:40.681Z,3.10
2022-10-15T15:19:29.322Z,3.40
2022-10-15T15:22:22.662Z,4.00
2022-10-15T15:25:18.626Z,7.13
2022-10-15T15:28:12.627Z,4.30
2022-10-15T15:31:02.819Z,3.30
2022-10-15T15:33:52.981Z,2.70
2022-10-15T15:36:41.628Z,12.30
2022-10-15T15:39:29.597Z,3.07
2022-10-15T15:42:22.437Z,3.70
2022-10-15T15:45:19.543Z,3.30
2022-10-15T15:48:08.201Z,3.73
2022-10-15T15:51:00.201Z,2.80
2022-10-15T15:53:50.357Z,2.90
2022-10-15T15:56:40.473Z,2.60
2022-10-15T15:59:30.560Z,2.40
2022-10-15T16:02:19.677Z,5.53
2022-10-15T16:05:17.239Z,5.90
2022-10-15T16:08:06.485Z,3.80
2022-10-15T16:10:54.495Z,4.90
2022-10-15T16:13:43.336Z,3.17
2022-10-15T16:16:33.033Z,5.57
2022-10-15T16:19:20.983Z,3.30
2022-10-15T16:22:09.545Z,3.60
2022-10-15T16:24:57.843Z,3.50
2022-10-15T16:27:49.137Z,3.43
2022-10-15T16:30:42.739Z,5.50
2022-10-15T16:33:32.272Z,7.13
2022-10-15T16:36:20.517Z,4.53
2022-10-15T16:39:09.028Z,6.17
2022-10-15T16:41:57.705Z,5.80
2022-10-15T16:44:45.838Z,5.03
2022-10-15T16:47:34.385Z,7.17
2022-10-15T16:50:26.085Z,5.80
2022-10-15T16:53:14.955Z,5.40
2022-10-15T16:56:04.862Z,6.83
2022-10-15T16:58:53.472Z,6.73
2022-10-15T17:01:42.004Z,7.83
2022-10-15T17:04:30.664Z,7.30
2022-10-15T17:07:24.611Z,13.00
2022-10-15T17:10:14.940Z,10.17
2022-10-15T17:13:03.305Z,15.33
2022-10-15T17:15:51.556Z,12.97
2022-10-15T17:18:40.041Z,9.53
2022-10-15T17:21:30.261Z,12.27
2022-10-15T17:24:20.593Z,12.00
2022-10-15T17:27:09.095Z,9.80
2022-10-15T17:29:57.418Z,10.43
2022-10-15T17:32:47.075Z,13.27
2022-10-15T17:35:37.949Z,14.73
2022-10-15T17:38:29.561Z,14.33
2022-10-15T17:41:21.711Z,14.53
2022-10-15T17:44:11.224Z,11.03
2022-10-15T17:46:59.584Z,10.00
2022-10-15T17:49:47.801Z,10.30
2022-10-15T17:52:37.053Z,10.93
2022-10-15T17:55:25.618Z,11.73
2022-10-15T17:58:16.820Z,11.10
2022-10-15T18:01:05.511Z,9.97
2022-10-15T18:03:53.689Z,15.90
2022-10-15T18:06:44.789Z,9.13
2022-10-15T18:09:33.503Z,10.10
2022-10-15T18:12:21.454Z,8.93
2022-10-15T18:15:11.890Z,9.50
2022-10-15T18:18:00.385Z,9.40
2022-10-15T18:20:50.189Z,13.47
2022-10-15T18:23:38.192Z,9.57
2022-10-15T18:26:26.632Z,10.03
2022-10-15T18:29:14.846Z,9.00
2022-10-15T18:32:04.551Z,8.97
2022-10-15T18:34:55.115Z,10.17
2022-10-15T18:37:43.193Z,12.20
2022-10-15T18:40:36.215Z,9.70
2022-10-15T18:43:28.753Z,12.63
2022-10-15T18:46:17.137Z,9.87
2022-10-15T18:49:10.759Z,10.13
2022-10-15T18:52:06.386Z,8.80
2022-10-15T18:55:04.232Z,10.97
2022-10-15T18:57:52.457Z,9.13
2022-10-15T19:00:41.866Z,8.50
2022-10-15T19:03:30.206Z,7.87
2022-10-15T19:06:20.396Z,9.00
2022-10-15T19:09:14.761Z,9.50
2022-10-15T19:12:03.307Z,8.83
2022-10-15T19:14:51.537Z,11.10
2022-10-15T19:17:39.667Z,8.20
2022-10-15T19:20:31.017Z,8.97
2022-10-15T19:23:26.721Z,13.60
2022-10-15T19:26:17.314Z,11.70
2022-10-15T19:29:06.612Z,18.53
2022-10-15T19:31:57.220Z,8.87
2022-10-15T19:34:45.986Z,9.67
2022-10-15T19:37:35.729Z,8.87
2022-10-15T19:40:25.672Z,13.77
2022-10-15T19:43:14.225Z,9.77
2022-10-15T19:46:04.692Z,8.07
2022-10-15T19:48:55.482Z,8.13
2022-10-15T19:51:44.941Z,10.17
2022-10-15T19:54:33.079Z,8.00
2022-10-15T19:57:24.703Z,8.93
2022-10-15T20:00:15.189Z,10.30
2022-10-15T20:03:03.990Z,8.07
2022-10-15T20:05:53.081Z,8.57
2022-10-15T20:48:09.486Z,10.37
